createdAt,value
2023-05-16T00:04:05.900Z,15.67
2023-05-16T00:09:07.699Z,15.40
2023-05-16T00:14:09.395Z,16.20
2023-05-16T00:19:11.401Z,14.00
2023-05-16T00:24:13.118Z,11.97
2023-05-16T00:29:14.842Z,12.83
2023-05-16T00:34:16.763Z,12.70
2023-05-16T00:39:18.547Z,12.37
2023-05-16T00:44:20.293Z,13.93
2023-05-16T00:49:22.357Z,13.67
2023-05-16T00:54:26.911Z,17.53
2023-05-16T00:59:28.665Z,14.47
2023-05-16T01:04:32.280Z,14.77
2023-05-16T01:09:34.416Z,14.80
2023-05-16T01:15:05.084Z,13.03
2023-05-16T01:20:15.678Z,12.47
2023-05-16T01:25:39.780Z,13.63
2023-05-16T01:30:41.736Z,15.17
2023-05-16T01:35:56.078Z,12.63
2023-05-16T01:41:24.801Z,14.13
2023-05-16T01:46:30.472Z,14.13
2023-05-16T01:51:35.978Z,20.57
2023-05-16T01:56:38.710Z,12.17
2023-05-16T02:01:40.502Z,15.23
2023-05-16T02:06:43.070Z,14.57
2023-05-16T02:11:44.852Z,14.70
2023-05-16T02:16:46.716Z,16.53
2023-05-16T02:21:48.579Z,13.80
2023-05-16T02:26:50.290Z,15.23
2023-05-16T02:31:51.989Z,15.53
2023-05-16T02:36:53.649Z,13.83
2023-05-16T02:41:55.502Z,14.97
2023-05-16T02:46:57.420Z,16.43
2023-05-16T02:51:59.182Z,16.00
2023-05-16T02:57:01.151Z,15.90
2023-05-16T03:02:03.769Z,17.40
2023-05-16T03:07:05.474Z,19.23
2023-05-16T03:12:07.517Z,16.30
2023-05-16T03:17:09.242Z,19.80
2023-05-16T03:22:10.940Z,19.27
2023-05-16T03:27:12.764Z,25.33
2023-05-16T03:32:14.559Z,26.07
2023-05-16T03:37:16.505Z,28.10
2023-05-16T03:42:18.487Z,27.47
2023-05-16T03:47:20.316Z,29.53
2023-05-16T03:52:22.362Z,31.33
2023-05-16T03:57:24.083Z,28.20
2023-05-16T04:02:26.054Z,30.47
2023-05-16T04:07:28.346Z,30.97
2023-05-16T04:12:30.126Z,31.13
2023-05-16T04:17:31.996Z,30.83
2023-05-16T04:22:33.981Z,30.97
2023-05-16T04:27:35.754Z,29.70
2023-05-16T04:32:37.521Z,27.90
2023-05-16T04:37:39.346Z,29.33
2023-05-16T04:42:41.116Z,29.87
2023-05-16T04:47:42.916Z,28.97
2023-05-16T04:52:44.797Z,30.67
2023-05-16T04:57:46.869Z,32.37
2023-05-16T05:02:48.699Z,32.73
2023-05-16T05:07:50.635Z,31.10
2023-05-16T05:12:52.331Z,30.50
2023-05-16T05:17:54.188Z,32.30
2023-05-16T05:22:56.068Z,32.80
2023-05-16T05:27:57.783Z,33.80
2023-05-16T05:32:59.549Z,36.73
2023-05-16T05:38:01.782Z,40.23
2023-05-16T05:43:03.498Z,38.27
2023-05-16T05:48:05.573Z,41.77
2023-05-16T05:53:07.610Z,47.67
2023-05-16T05:58:09.423Z,46.63
2023-05-16T06:03:11.241Z,50.13
2023-05-16T06:08:13.083Z,48.40
2023-05-16T06:13:14.808Z,48.03
2023-05-16T06:18:16.679Z,49.33
2023-05-16T06:23:21.069Z,47.70
2023-05-16T06:28:24.209Z,48.43
2023-05-16T06:33:26.022Z,49.63
2023-05-16T06:38:27.718Z,49.33
2023-05-16T06:43:29.546Z,48.33
2023-05-16T06:48:31.328Z,45.57
2023-05-16T06:53:33.196Z,47.43
2023-05-16T06:58:34.956Z,48.23
2023-05-16T07:03:37.006Z,45.23
2023-05-16T07:08:38.888Z,43.00
2023-05-16T07:13:40.678Z,41.03
2023-05-16T07:18:42.545Z,42.03
2023-05-16T07:23:44.406Z,42.53
2023-05-16T07:28:46.166Z,41.60
2023-05-16T07:33:49.271Z,44.03
2023-05-16T07:38:51.114Z,43.23
2023-05-16T07:43:53.045Z,42.43
2023-05-16T07:48:54.875Z,48.67
2023-05-16T07:53:56.644Z,49.23
2023-05-16T07:58:58.447Z,43.53
2023-05-16T08:04:00.349Z,45.47
2023-05-16T08:09:02.210Z,44.83
2023-05-16T08:14:04.055Z,45.43
2023-05-16T08:19:06.775Z,41.63
2023-05-16T08:24:11.165Z,44.47
2023-05-16T08:29:12.953Z,48.47
2023-05-16T08:34:14.741Z,44.60
2023-05-16T08:39:16.586Z,44.23
2023-05-16T08:44:21.895Z,44.63
2023-05-16T08:49:27.419Z,41.13
2023-05-16T08:54:29.921Z,40.67
2023-05-16T08:59:32.428Z,43.63
2023-05-16T09:04:34.658Z,39.60
2023-05-16T09:09:36.817Z,40.53
2023-05-16T09:14:38.684Z,43.73
2023-05-16T09:19:44.824Z,45.13
2023-05-16T09:24:46.869Z,46.17
2023-05-16T09:29:52.055Z,40.47
2023-05-16T09:34:56.870Z,44.47
2023-05-16T09:39:58.666Z,44.30
2023-05-16T09:45:02.549Z,51.97
2023-05-16T09:50:04.793Z,48.97
2023-05-16T09:55:10.500Z,46.20
2023-05-16T10:00:13.251Z,43.67
2023-05-16T10:05:16.549Z,44.10
2023-05-16T10:10:18.565Z,44.57
2023-05-16T10:15:22.004Z,42.60
2023-05-16T10:20:24.298Z,44.87
2023-05-16T10:25:29.271Z,42.73
2023-05-16T10:30:34.092Z,41.77
2023-05-16T10:35:36.031Z,41.97
2023-05-16T10:40:39.387Z,42.47
2023-05-16T10:45:44.262Z,42.07
2023-05-16T10:50:46.695Z,41.57
2023-05-16T10:56:00.868Z,43.30
2023-05-16T11:01:26.972Z,37.57
2023-05-16T11:06:32.655Z,36.37
2023-05-16T11:12:02.872Z,34.57
2023-05-16T11:17:14.606Z,37.23
2023-05-16T11:22:19.578Z,34.93
2023-05-16T11:27:31.718Z,36.80
2023-05-16T11:32:41.445Z,36.97
2023-05-16T11:37:44.684Z,40.63
2023-05-16T11:42:48.422Z,33.77
2023-05-16T11:47:50.561Z,29.13
2023-05-16T11:52:54.390Z,23.03
2023-05-16T11:57:58.729Z,24.57
2023-05-16T12:03:05.590Z,22.17
2023-05-16T12:08:10.659Z,22.23
2023-05-16T12:13:12.839Z,23.07
2023-05-16T12:18:16.127Z,15.90
2023-05-16T12:23:18.026Z,13.57
2023-05-16T12:28:19.851Z,14.13
2023-05-16T12:33:21.967Z,12.67
2023-05-16T12:38:26.586Z,14.83
2023-05-16T12:43:28.657Z,16.13
2023-05-16T12:48:35.050Z,15.20
2023-05-16T12:53:44.745Z,14.53
2023-05-16T12:58:52.518Z,13.40
2023-05-16T13:03:54.335Z,12.80
2023-05-16T13:08:56.313Z,15.37
2023-05-16T13:13:58.032Z,12.30
2023-05-16T13:18:59.834Z,11.83
2023-05-16T13:24:01.636Z,10.67
2023-05-16T13:29:03.410Z,13.47
2023-05-16T13:34:05.195Z,11.70
2023-05-16T13:39:06.966Z,8.70
2023-05-16T13:44:08.917Z,9.93
2023-05-16T13:49:10.901Z,9.03
2023-05-16T13:54:12.733Z,10.57
2023-05-16T13:59:20.193Z,9.17
2023-05-16T14:04:29.230Z,10.03
2023-05-16T14:09:31.744Z,10.73
2023-05-16T14:14:36.857Z,13.60
2023-05-16T14:19:38.797Z,10.43
2023-05-16T14:24:40.694Z,12.03
2023-05-16T14:29:42.764Z,11.03
2023-05-16T14:34:44.751Z,10.87
2023-05-16T14:39:48.403Z,9.23
2023-05-16T14:44:50.154Z,9.43
2023-05-16T14:49:53.200Z,10.47
2023-05-16T14:54:54.974Z,8.50
2023-05-16T14:59:56.730Z,10.17
2023-05-16T15:04:58.673Z,8.40
2023-05-16T15:10:00.617Z,9.10
2023-05-16T15:15:02.450Z,9.17
2023-05-16T15:20:09.568Z,10.53
2023-05-16T15:25:11.589Z,11.73
2023-05-16T15:30:14.609Z,11.43
2023-05-16T15:35:16.429Z,9.47
2023-05-16T15:40:20.533Z,11.10
2023-05-16T15:45:25.222Z,11.17
2023-05-16T15:50:27.049Z,10.87
2023-05-16T15:55:29.200Z,10.07
2023-05-16T16:00:31.198Z,13.53
2023-05-16T16:05:33.142Z,10.30
2023-05-16T16:10:35.371Z,10.97
2023-05-16T16:15:38.300Z,12.93
2023-05-16T16:20:40.711Z,12.57
2023-05-16T16:25:42.498Z,11.27
2023-05-16T16:30:46.702Z,13.67
2023-05-16T16:35:48.628Z,15.90
2023-05-16T16:40:50.410Z,13.33
2023-05-16T16:45:52.236Z,12.20
2023-05-16T16:50:54.261Z,14.93
2023-05-16T16:55:56.112Z,14.17
2023-05-16T17:00:58.349Z,15.37
2023-05-16T17:06:00.187Z,14.43
2023-05-16T17:11:05.193Z,12.30
2023-05-16T17:16:08.019Z,12.10
2023-05-16T17:21:12.856Z,14.53
2023-05-16T17:26:14.730Z,16.70
2023-05-16T17:31:16.758Z,13.23
2023-05-16T17:36:19.358Z,14.50
2023-05-16T17:41:22.105Z,16.03
2023-05-16T17:46:23.894Z,17.93
2023-05-16T17:51:26.050Z,12.57
2023-05-16T17:56:27.859Z,11.03
2023-05-16T18:01:29.677Z,11.93
2023-05-16T18:06:31.934Z,11.20
2023-05-16T18:11:35.024Z,13.70
2023-05-16T18:16:36.835Z,12.13
2023-05-16T18:21:39.455Z,12.07
2023-05-16T18:26:42.060Z,14.13
2023-05-16T18:31:46.836Z,9.50
2023-05-16T18:36:49.003Z,10.77
2023-05-16T18:41:50.869Z,10.57
2023-05-16T18:46:52.802Z,13.37
2023-05-16T18:51:55.911Z,12.23
2023-05-16T18:56:57.654Z,13.53
2023-05-16T19:01:59.602Z,10.77
2023-05-16T19:07:03.777Z,12.90
2023-05-16T19:12:06.530Z,10.23
2023-05-16T19:17:08.322Z,13.30
2023-05-16T19:22:10.138Z,13.20
2023-05-16T19:27:12.095Z,12.93
2023-05-16T19:32:13.919Z,11.90
2023-05-16T19:37:15.706Z,11.40
2023-05-16T19:42:20.019Z,11.13
2023-05-16T19:47:22.057Z,15.53
2023-05-16T19:52:26.036Z,13.67
2023-05-16T19:57:28.039Z,12.70
2023-05-16T20:02:29.841Z,12.03
2023-05-16T20:07:31.590Z,15.57
2023-05-16T20:12:33.345Z,13.87
2023-05-16T20:17:35.496Z,14.40
2023-05-16T20:22:41.669Z,11.93
2023-05-16T20:27:43.769Z,15.60
2023-05-16T20:32:45.701Z,12.63
2023-05-16T20:37:47.623Z,16.67
2023-05-16T20:42:49.618Z,13.83
2023-05-16T20:47:51.753Z,12.23
2023-05-16T20:52:53.637Z,19.07
2023-05-16T20:57:55.422Z,15.10
2023-05-16T21:02:57.439Z,27.87
2023-05-16T21:07:59.384Z,23.03
2023-05-16T21:13:01.136Z,20.90
2023-05-16T21:18:03.034Z,15.23
2023-05-16T21:23:04.855Z,14.93
2023-05-16T21:28:06.673Z,13.50
2023-05-16T21:33:08.476Z,13.87
2023-05-16T21:38:10.575Z,12.87
2023-05-16T21:43:12.311Z,13.23
2023-05-16T21:48:14.103Z,12.87
2023-05-16T21:53:17.695Z,13.37
2023-05-16T21:58:19.585Z,11.10
2023-05-16T22:03:21.569Z,16.97
2023-05-16T22:08:23.989Z,14.90
2023-05-16T22:13:25.930Z,12.07
2023-05-16T22:18:27.927Z,12.13
2023-05-16T22:23:29.846Z,13.60
2023-05-16T22:28:31.741Z,12.47
2023-05-16T22:33:33.623Z,11.13
2023-05-16T22:38:35.508Z,11.20
2023-05-16T22:43:37.446Z,12.13
2023-05-16T22:48:39.289Z,11.03
2023-05-16T22:53:41.213Z,11.87
2023-05-16T22:58:43.035Z,15.00
2023-05-16T23:03:44.875Z,9.80
2023-05-16T23:08:46.639Z,12.33
2023-05-16T23:13:48.354Z,11.27
2023-05-16T23:18:50.273Z,13.20
2023-05-16T23:23:52.174Z,14.60
2023-05-16T23:28:53.943Z,14.73
2023-05-16T23:33:56.182Z,11.77
2023-05-16T23:38:57.991Z,10.50
2023-05-16T23:43:59.778Z,14.80
2023-05-16T23:49:01.741Z,16.23
2023-05-16T23:54:03.634Z,14.97
2023-05-16T23:59:05.386Z,17.37
